createdAt,value
2017-08-22T00:00:59.956Z,7.78
2017-08-22T00:03:45.604Z,7.10
2017-08-22T00:06:14.532Z,7.07
2017-08-22T00:08:42.548Z,6.25
2017-08-22T00:11:10.588Z,6.90
2017-08-22T00:13:39.540Z,6.80
2017-08-22T00:16:07.564Z,6.57
2017-08-22T00:18:35.592Z,13.45
2017-08-22T00:21:03.608Z,7.60
2017-08-22T00:23:31.632Z,7.53
2017-08-22T00:25:59.656Z,8.35
2017-08-22T00:28:27.676Z,6.43
2017-08-22T00:30:55.709Z,7.85
2017-08-22T00:33:23.744Z,6.62
2017-08-22T00:35:51.760Z,6.60
2017-08-22T00:38:19.783Z,9.73
2017-08-22T00:40:47.828Z,9.52
2017-08-22T00:43:15.836Z,6.87
2017-08-22T00:45:44.744Z,7.12
2017-08-22T00:48:12.780Z,10.88
2017-08-22T00:50:40.800Z,10.18
2017-08-22T00:53:09.731Z,7.80
2017-08-22T00:55:38.735Z,6.25
2017-08-22T00:58:06.756Z,6.78
2017-08-22T01:00:35.783Z,7.65
2017-08-22T01:03:03.823Z,16.55
2017-08-22T01:05:31.855Z,10.45
2017-08-22T01:07:59.900Z,7.32
2017-08-22T01:10:27.920Z,10.38
2017-08-22T01:12:55.936Z,8.85
2017-08-22T01:15:23.963Z,8.65
2017-08-22T01:17:52.011Z,8.40
2017-08-22T01:20:20.039Z,10.45
2017-08-22T01:22:48.055Z,10.88
2017-08-22T01:25:16.103Z,8.88
2017-08-22T01:27:45.075Z,9.10
2017-08-22T01:30:13.088Z,9.00
2017-08-22T01:32:41.128Z,10.93
2017-08-22T01:35:09.143Z,7.65
2017-08-22T01:37:37.167Z,7.87
2017-08-22T01:40:05.207Z,10.40
2017-08-22T01:42:33.223Z,8.02
2017-08-22T01:45:02.194Z,8.55
2017-08-22T01:47:30.216Z,8.82
2017-08-22T01:49:58.219Z,7.95
2017-08-22T01:52:26.235Z,10.60
2017-08-22T01:54:54.263Z,8.50
2017-08-22T01:57:22.287Z,7.97
2017-08-22T01:59:50.299Z,11.35
2017-08-22T02:02:19.315Z,8.25
2017-08-22T02:04:47.335Z,8.70
2017-08-22T02:07:15.355Z,8.25
2017-08-22T02:09:43.375Z,10.82
2017-08-22T02:12:11.402Z,7.40
2017-08-22T02:14:39.419Z,9.85
2017-08-22T02:17:08.431Z,8.30
2017-08-22T02:19:36.443Z,8.68
2017-08-22T02:22:04.463Z,8.20
2017-08-22T02:24:32.495Z,7.20
2017-08-22T02:27:00.499Z,6.62
2017-08-22T02:29:29.499Z,9.10
2017-08-22T02:31:57.527Z,7.35
2017-08-22T02:34:25.540Z,7.50
2017-08-22T02:36:53.555Z,6.95
2017-08-22T02:39:21.595Z,6.37
2017-08-22T02:41:49.631Z,7.03
2017-08-22T02:44:17.639Z,9.15
2017-08-22T02:46:46.635Z,6.20
2017-08-22T02:49:14.638Z,7.68
2017-08-22T02:51:42.654Z,8.35
2017-08-22T02:54:10.736Z,9.95
2017-08-22T02:56:38.746Z,8.55
2017-08-22T02:59:06.762Z,10.85
2017-08-22T03:01:34.802Z,11.60
2017-08-22T03:04:02.822Z,7.97
2017-08-22T03:06:30.834Z,7.75
2017-08-22T03:08:58.874Z,9.23
2017-08-22T03:11:26.898Z,10.60
2017-08-22T03:13:55.898Z,12.80
2017-08-22T03:16:23.938Z,8.50
2017-08-22T03:18:51.943Z,8.02
2017-08-22T03:21:19.950Z,8.40
2017-08-22T03:23:47.983Z,7.50
2017-08-22T03:26:15.998Z,10.30
2017-08-22T03:28:44.012Z,8.98
2017-08-22T03:31:12.034Z,9.18
2017-08-22T03:33:40.046Z,8.50
2017-08-22T03:36:09.034Z,7.97
2017-08-22T03:38:37.057Z,12.95
2017-08-22T03:41:05.082Z,10.10
2017-08-22T03:43:33.106Z,8.27
2017-08-22T03:46:01.166Z,11.60
2017-08-22T03:48:29.182Z,9.93
2017-08-22T03:50:57.210Z,8.85
2017-08-22T03:53:25.242Z,11.82
2017-08-22T03:55:53.302Z,11.25
2017-08-22T03:58:22.282Z,11.35
2017-08-22T04:00:50.326Z,9.20
2017-08-22T04:03:18.342Z,8.70
2017-08-22T04:05:46.362Z,8.70
2017-08-22T04:08:14.382Z,8.88
2017-08-22T04:10:43.350Z,8.68
2017-08-22T04:13:11.369Z,10.02
2017-08-22T04:15:39.394Z,8.32
2017-08-22T04:18:07.421Z,13.35
2017-08-22T04:20:35.441Z,10.88
2017-08-22T04:23:03.482Z,8.25
2017-08-22T04:25:31.498Z,9.80
2017-08-22T04:27:59.518Z,9.25
2017-08-22T04:30:27.545Z,11.93
2017-08-22T04:32:56.534Z,11.68
2017-08-22T04:35:24.550Z,8.90
2017-08-22T04:37:52.574Z,12.63
2017-08-22T04:40:20.594Z,9.27
2017-08-22T04:42:50.502Z,9.32
2017-08-22T04:45:18.545Z,10.38
2017-08-22T04:47:48.525Z,10.35
2017-08-22T04:50:17.529Z,8.65
2017-08-22T04:52:45.562Z,14.93
2017-08-22T04:55:14.577Z,12.57
2017-08-22T04:57:42.785Z,9.88
2017-08-22T05:00:10.826Z,9.32
2017-08-22T05:02:38.845Z,11.43
2017-08-22T05:05:06.871Z,13.32
2017-08-22T05:07:34.913Z,15.32
2017-08-22T05:10:02.945Z,12.23
2017-08-22T05:12:30.965Z,10.98
2017-08-22T05:14:59.009Z,11.80
2017-08-22T05:17:28.037Z,12.52
2017-08-22T05:19:56.061Z,11.55
2017-08-22T05:22:24.117Z,10.98
2017-08-22T05:24:52.137Z,10.93
2017-08-22T05:27:21.137Z,13.07
2017-08-22T05:29:49.201Z,10.90
2017-08-22T05:32:17.221Z,12.05
2017-08-22T05:34:45.257Z,14.07
2017-08-22T05:37:13.293Z,11.57
2017-08-22T05:39:41.329Z,13.35
2017-08-22T05:42:09.361Z,13.93
2017-08-22T05:44:38.365Z,9.65
2017-08-22T05:47:06.389Z,10.80
2017-08-22T05:49:34.421Z,9.13
2017-08-22T05:52:08.309Z,8.77
2017-08-22T05:54:36.333Z,12.87
2017-08-22T05:57:04.361Z,9.10
2017-08-22T05:59:32.421Z,9.70
2017-08-22T06:02:00.445Z,7.70
2017-08-22T06:04:28.476Z,7.77
2017-08-22T06:06:56.516Z,7.57
2017-08-22T06:09:24.553Z,9.40
2017-08-22T06:11:52.596Z,8.07
2017-08-22T06:14:20.644Z,9.00
2017-08-22T06:16:48.668Z,10.47
2017-08-22T06:19:16.709Z,10.10
2017-08-22T06:21:44.760Z,9.40
2017-08-22T06:24:12.787Z,9.97
2017-08-22T06:26:41.792Z,7.90
2017-08-22T06:29:09.840Z,8.70
2017-08-22T06:31:37.861Z,7.63
2017-08-22T06:34:05.892Z,11.27
2017-08-22T06:36:37.477Z,8.70
2017-08-22T06:39:05.488Z,6.93
2017-08-22T06:41:34.416Z,9.83
2017-08-22T06:44:02.479Z,9.13
2017-08-22T06:46:30.472Z,8.97
2017-08-22T06:48:58.516Z,7.50
2017-08-22T06:51:26.577Z,7.63
2017-08-22T06:53:54.596Z,7.70
2017-08-22T06:56:22.620Z,8.83
2017-08-22T06:58:50.664Z,7.70
2017-08-22T07:01:18.688Z,11.70
2017-08-22T07:03:46.712Z,6.53
2017-08-22T07:06:14.741Z,6.90
2017-08-22T07:08:42.768Z,7.70
2017-08-22T07:11:10.818Z,8.97
2017-08-22T07:13:38.884Z,3.53
2017-08-22T07:16:07.816Z,5.80
2017-08-22T07:18:35.892Z,5.70
2017-08-22T07:21:05.924Z,4.20
2017-08-22T07:23:34.988Z,5.93
2017-08-22T07:26:05.024Z,8.40
2017-08-22T07:28:33.064Z,4.43
2017-08-22T07:31:01.984Z,4.43
2017-08-22T07:33:35.604Z,6.97
2017-08-22T07:36:03.624Z,4.80
2017-08-22T07:38:31.636Z,3.17
2017-08-22T07:40:59.687Z,3.90
2017-08-22T07:43:27.707Z,5.63
2017-08-22T07:45:56.652Z,5.57
2017-08-22T07:48:25.652Z,3.30
2017-08-22T07:50:53.668Z,4.20
2017-08-22T07:53:22.603Z,6.10
2017-08-22T07:55:52.623Z,6.20
2017-08-22T07:58:20.639Z,4.63
2017-08-22T08:00:48.655Z,4.50
2017-08-22T08:03:16.679Z,5.90
2017-08-22T08:05:44.691Z,3.63
2017-08-22T08:08:12.712Z,4.30
2017-08-22T08:10:40.736Z,4.60
2017-08-22T08:13:08.751Z,4.97
2017-08-22T08:15:36.775Z,4.20
2017-08-22T08:18:04.815Z,4.23
2017-08-22T08:20:32.827Z,6.00
2017-08-22T08:23:00.843Z,6.80
2017-08-22T08:25:30.807Z,6.30
2017-08-22T08:27:58.831Z,2.20
2017-08-22T08:30:27.751Z,4.30
2017-08-22T08:32:55.788Z,6.53
2017-08-22T08:35:23.803Z,4.43
2017-08-22T08:37:52.783Z,4.40
2017-08-22T08:40:20.819Z,6.93
2017-08-22T08:42:52.607Z,5.20
2017-08-22T08:45:20.632Z,4.90
2017-08-22T08:47:48.687Z,2.80
2017-08-22T08:50:18.671Z,3.20
2017-08-22T08:52:46.686Z,4.87
2017-08-22T08:55:14.711Z,6.30
2017-08-22T08:57:42.723Z,3.30
2017-08-22T09:00:11.667Z,4.07
2017-08-22T09:02:39.703Z,2.40
2017-08-22T09:05:07.719Z,7.63
2017-08-22T09:07:35.735Z,6.03
2017-08-22T09:10:03.755Z,2.87
2017-08-22T09:12:33.755Z,4.67
2017-08-22T09:15:01.787Z,5.57
2017-08-22T09:17:30.746Z,3.33
2017-08-22T09:19:58.770Z,4.50
2017-08-22T09:22:26.783Z,5.03
2017-08-22T09:24:56.675Z,11.20
2017-08-22T09:27:25.590Z,3.53
2017-08-22T09:29:53.599Z,4.33
2017-08-22T09:35:15.294Z,4.23
2017-08-22T09:37:43.331Z,2.43
2017-08-22T09:40:11.350Z,3.30
2017-08-22T09:42:40.131Z,3.50
2017-08-22T09:45:09.106Z,3.10
2017-08-22T09:47:37.114Z,2.33
2017-08-22T09:50:06.030Z,3.27
2017-08-22T09:52:34.051Z,3.07
2017-08-22T09:55:02.062Z,2.93
2017-08-22T09:57:30.070Z,4.20
2017-08-22T09:59:59.075Z,3.27
2017-08-22T10:03:00.950Z,3.03
2017-08-22T10:05:29.310Z,5.20
2017-08-22T10:07:57.318Z,5.80
2017-08-22T10:10:25.326Z,3.67
2017-08-22T10:12:55.363Z,2.83
2017-08-22T10:15:24.342Z,2.00
2017-08-22T10:17:53.347Z,4.70
2017-08-22T10:20:21.411Z,4.03
2017-08-22T10:22:49.422Z,2.77
2017-08-22T10:25:17.441Z,3.80
2017-08-22T10:27:45.474Z,4.33
2017-08-22T10:30:13.490Z,6.30
2017-08-22T10:32:41.510Z,2.60
2017-08-22T10:35:10.451Z,3.43
2017-08-22T10:37:38.465Z,4.53
2017-08-22T10:40:06.480Z,2.67
2017-08-22T10:42:34.510Z,5.00
2017-08-22T10:45:02.526Z,3.40
2017-08-22T10:47:32.550Z,7.70
2017-08-22T10:50:01.570Z,3.30
2017-08-22T10:52:29.590Z,3.53
2017-08-22T10:54:57.610Z,4.70
2017-08-22T10:57:25.642Z,4.27
2017-08-22T10:59:53.670Z,6.43
2017-08-22T11:02:21.690Z,2.23
2017-08-22T11:04:49.718Z,3.77
2017-08-22T11:07:19.458Z,3.33
2017-08-22T11:09:48.242Z,2.17
2017-08-22T11:12:16.274Z,3.10
2017-08-22T11:14:44.282Z,6.80
2017-08-22T11:17:12.302Z,2.43
2017-08-22T11:19:42.073Z,2.70
2017-08-22T11:22:10.108Z,2.50
2017-08-22T11:24:40.085Z,3.73
2017-08-22T11:27:08.106Z,5.90
2017-08-22T11:29:36.128Z,3.23
2017-08-22T11:32:05.898Z,2.97
2017-08-22T11:34:33.945Z,4.13
2017-08-22T11:37:01.961Z,3.80
2017-08-22T11:39:29.979Z,6.97
2017-08-22T11:42:00.957Z,5.70
2017-08-22T11:44:29.542Z,5.33
2017-08-22T11:46:57.553Z,4.03
2017-08-22T11:49:26.517Z,2.23
2017-08-22T11:51:54.535Z,3.17
2017-08-22T11:54:24.489Z,1.73
2017-08-22T11:56:52.513Z,4.60
2017-08-22T11:59:20.541Z,5.80
2017-08-22T12:01:48.577Z,3.73
2017-08-22T12:04:16.607Z,5.80
2017-08-22T12:06:44.657Z,2.93
2017-08-22T12:09:12.665Z,5.47
2017-08-22T12:11:40.693Z,3.40
2017-08-22T12:14:08.725Z,4.23
2017-08-22T12:16:37.745Z,2.77
2017-08-22T12:19:05.781Z,3.40
2017-08-22T12:21:33.805Z,5.47
2017-08-22T12:24:03.801Z,3.33
2017-08-22T12:26:31.821Z,3.17
2017-08-22T12:28:59.853Z,2.50
2017-08-22T12:31:27.881Z,4.27
2017-08-22T12:33:55.913Z,3.00
2017-08-22T12:36:23.957Z,3.40
2017-08-22T12:38:52.928Z,3.10
2017-08-22T12:41:20.953Z,3.40
2017-08-22T12:43:48.965Z,3.40
2017-08-22T12:46:16.985Z,4.10
2017-08-22T12:48:46.556Z,2.80
2017-08-22T12:51:14.576Z,2.80
2017-08-22T12:53:42.592Z,4.23
2017-08-22T12:56:10.637Z,4.33
2017-08-22T12:58:38.660Z,2.93
2017-08-22T13:01:07.609Z,4.80
2017-08-22T13:03:35.640Z,4.00
2017-08-22T13:06:04.553Z,2.60
2017-08-22T13:08:32.588Z,3.27
2017-08-22T13:11:01.388Z,6.87
2017-08-22T13:13:29.408Z,4.90
2017-08-22T13:15:57.440Z,3.30
2017-08-22T13:18:25.452Z,7.60
2017-08-22T13:20:53.479Z,4.47
2017-08-22T13:23:21.496Z,3.57
2017-08-22T13:25:52.976Z,2.53
2017-08-22T13:28:20.996Z,2.43
2017-08-22T13:30:49.023Z,3.90
2017-08-22T13:33:17.068Z,5.93
2017-08-22T13:35:46.028Z,2.83
2017-08-22T13:38:14.816Z,2.23
2017-08-22T13:40:42.848Z,4.50
2017-08-22T13:43:10.867Z,3.17
2017-08-22T13:45:39.852Z,2.90
2017-08-22T13:48:09.884Z,2.77
2017-08-22T13:50:37.896Z,3.87
2017-08-22T13:53:05.916Z,4.87
2017-08-22T13:55:34.924Z,3.00
2017-08-22T13:58:02.948Z,4.97
2017-08-22T14:00:30.976Z,2.50
2017-08-22T14:03:03.184Z,4.67
2017-08-22T14:05:35.052Z,3.50
2017-08-22T14:08:03.056Z,2.60
2017-08-22T14:10:31.972Z,5.00
2017-08-22T14:13:00.744Z,2.33
2017-08-22T14:15:28.764Z,4.00
2017-08-22T14:17:58.700Z,4.17
2017-08-22T14:20:26.720Z,4.30
2017-08-22T14:22:54.744Z,2.90
2017-08-22T14:25:22.760Z,4.60
2017-08-22T14:27:50.780Z,3.57
2017-08-22T14:30:18.823Z,2.30
2017-08-22T14:32:47.847Z,2.90
2017-08-22T14:35:15.860Z,3.20
2017-08-22T14:37:44.782Z,2.63
2017-08-22T14:40:12.792Z,5.53
2017-08-22T14:42:40.811Z,3.07
2017-08-22T14:45:08.844Z,4.33
2017-08-22T14:47:37.624Z,2.93
2017-08-22T14:50:05.636Z,3.77
2017-08-22T14:52:34.424Z,4.73
2017-08-22T14:55:02.436Z,3.00
2017-08-22T14:57:30.463Z,8.20
2017-08-22T14:59:58.492Z,4.33
2017-08-22T15:02:27.276Z,3.13
2017-08-22T15:04:55.288Z,4.90
2017-08-22T15:07:24.327Z,9.73
2017-08-22T15:09:52.347Z,3.57
2017-08-22T15:12:20.364Z,5.60
2017-08-22T15:14:48.399Z,2.43
2017-08-22T15:17:17.427Z,4.80
2017-08-22T15:19:46.420Z,3.60
2017-08-22T15:22:15.459Z,5.03
2017-08-22T15:24:43.467Z,2.87
2017-08-22T15:27:12.463Z,2.67
2017-08-22T15:29:40.523Z,5.23
2017-08-22T15:32:09.535Z,2.83
2017-08-22T15:34:37.557Z,3.33
2017-08-22T15:37:06.495Z,2.80
2017-08-22T15:39:34.507Z,2.20
2017-08-22T15:42:02.523Z,3.20
2017-08-22T15:44:31.531Z,4.77
2017-08-22T15:46:59.539Z,3.20
2017-08-22T15:49:27.559Z,3.17
2017-08-22T15:51:55.586Z,2.90
2017-08-22T15:54:23.603Z,4.83
2017-08-22T15:56:51.619Z,3.63
2017-08-22T15:59:20.284Z,2.10
2017-08-22T16:01:49.055Z,3.67
2017-08-22T16:04:17.071Z,3.37
2017-08-22T16:06:45.087Z,2.60
2017-08-22T16:09:13.166Z,3.10
2017-08-22T16:11:41.167Z,2.93
2017-08-22T16:14:09.211Z,8.30
2017-08-22T16:16:37.991Z,2.27
2017-08-22T16:19:06.963Z,2.10
2017-08-22T16:21:35.976Z,3.30
2017-08-22T16:24:05.975Z,3.77
2017-08-22T16:26:33.987Z,2.47
2017-08-22T16:29:02.027Z,4.07
2017-08-22T16:31:30.043Z,3.00
2017-08-22T16:33:59.992Z,2.33
2017-08-22T16:36:28.026Z,3.00
2017-08-22T16:38:56.039Z,3.10
2017-08-22T16:41:24.058Z,2.80
2017-08-22T16:43:52.094Z,4.80
2017-08-22T16:46:20.106Z,4.77
2017-08-22T16:48:49.031Z,3.13
2017-08-22T16:51:17.962Z,2.60
2017-08-22T16:53:45.990Z,4.93
2017-08-22T16:56:14.903Z,3.40
2017-08-22T16:58:42.918Z,2.87
2017-08-22T17:01:10.935Z,2.40
2017-08-22T17:03:38.946Z,5.37
2017-08-22T17:06:07.899Z,2.23
2017-08-22T17:08:35.910Z,2.60
2017-08-22T17:11:04.834Z,2.63
2017-08-22T17:13:34.878Z,8.07
2017-08-22T17:16:03.850Z,2.33
2017-08-22T17:18:33.878Z,5.60
2017-08-22T17:21:03.918Z,4.43
2017-08-22T17:23:35.542Z,3.70
2017-08-22T17:26:03.570Z,3.30
2017-08-22T17:28:31.589Z,2.67
2017-08-22T17:30:59.603Z,10.67
2017-08-22T17:33:29.315Z,6.70
2017-08-22T17:35:57.335Z,7.20
2017-08-22T17:38:25.342Z,4.33
2017-08-22T17:40:54.142Z,3.87
2017-08-22T17:43:22.162Z,5.53
2017-08-22T17:45:50.178Z,3.10
2017-08-22T17:48:18.194Z,3.80
2017-08-22T17:50:46.210Z,3.07
2017-08-22T17:53:14.238Z,6.57
2017-08-22T17:55:42.266Z,3.93
2017-08-22T17:58:10.959Z,2.63
2017-08-22T18:00:39.718Z,2.87
2017-08-22T18:03:07.755Z,3.90
2017-08-22T18:05:35.786Z,3.50
2017-08-22T18:08:04.562Z,3.00
2017-08-22T18:10:32.590Z,2.87
2017-08-22T18:13:00.610Z,3.50
2017-08-22T18:15:28.633Z,4.80
2017-08-22T18:17:56.662Z,3.30
2017-08-22T18:20:25.674Z,5.27
2017-08-22T18:22:53.710Z,6.27
2017-08-22T18:25:21.766Z,4.80
2017-08-22T18:27:51.525Z,5.20
2017-08-22T18:30:19.550Z,4.63
2017-08-22T18:32:48.342Z,9.13
2017-08-22T18:35:16.386Z,10.17
2017-08-22T18:37:45.190Z,7.60
2017-08-22T18:40:13.233Z,5.90
2017-08-22T18:42:41.245Z,4.80
2017-08-22T18:45:09.274Z,4.53
2017-08-22T18:47:38.281Z,6.70
2017-08-22T18:50:06.306Z,3.77
2017-08-22T18:52:35.326Z,4.10
2017-08-22T18:55:03.358Z,2.93
2017-08-22T18:57:31.385Z,3.47
2017-08-22T18:59:59.422Z,3.50
2017-08-22T19:02:27.461Z,3.97
2017-08-22T19:04:55.489Z,4.10
2017-08-22T19:07:24.281Z,5.40
2017-08-22T19:09:53.109Z,5.10
2017-08-22T19:12:21.118Z,4.00
2017-08-22T19:14:49.137Z,5.27
2017-08-22T19:17:17.197Z,5.43
2017-08-22T19:19:46.137Z,3.80
2017-08-22T19:22:14.164Z,4.00
2017-08-22T19:24:42.221Z,3.93
2017-08-22T19:27:11.009Z,5.43
2017-08-22T19:29:39.049Z,7.40
2017-08-22T19:32:07.085Z,5.33
2017-08-22T19:34:35.118Z,4.33
2017-08-22T19:37:03.145Z,6.13
2017-08-22T19:39:31.197Z,4.30
2017-08-22T19:42:00.209Z,5.03
2017-08-22T19:44:28.233Z,6.67
2017-08-22T19:46:56.298Z,3.77
2017-08-22T19:49:26.061Z,4.53
2017-08-22T19:51:54.106Z,5.30
2017-08-22T19:54:22.141Z,5.90
2017-08-22T19:56:50.173Z,4.20
2017-08-22T19:59:18.200Z,4.87
2017-08-22T20:01:46.257Z,5.73
2017-08-22T20:04:14.280Z,4.37
2017-08-22T20:06:43.285Z,5.23
2017-08-22T20:09:12.280Z,6.20
2017-08-22T20:11:40.304Z,4.83
2017-08-22T20:14:08.444Z,4.83
2017-08-22T20:16:36.480Z,4.50
2017-08-22T20:19:04.517Z,4.63
2017-08-22T20:21:32.548Z,4.83
2017-08-22T20:24:00.640Z,5.50
2017-08-22T20:26:28.661Z,6.80
2017-08-22T20:29:00.833Z,4.65
2017-08-22T20:31:28.868Z,5.03
2017-08-22T20:33:56.896Z,6.55
2017-08-22T20:36:24.944Z,6.68
2017-08-22T20:38:52.964Z,5.22
2017-08-22T20:41:20.996Z,4.28
2017-08-22T20:43:49.830Z,8.70
2017-08-22T20:46:17.860Z,5.50
2017-08-22T20:48:46.696Z,5.17
2017-08-22T20:51:14.768Z,6.95
2017-08-22T20:53:42.956Z,5.87
2017-08-22T20:56:11.964Z,6.87
2017-08-22T20:58:40.956Z,6.75
2017-08-22T21:01:12.548Z,5.27
2017-08-22T21:03:40.544Z,6.32
2017-08-22T21:06:08.588Z,5.03
2017-08-22T21:08:37.380Z,6.87
2017-08-22T21:11:05.548Z,4.95
2017-08-22T21:13:34.500Z,7.10
2017-08-22T21:16:02.572Z,7.22
2017-08-22T21:18:30.588Z,6.00
2017-08-22T21:20:58.624Z,6.30
2017-08-22T21:23:27.416Z,5.50
2017-08-22T21:25:55.463Z,7.70
2017-08-22T21:28:24.272Z,8.00
2017-08-22T21:30:52.292Z,5.80
2017-08-22T21:33:20.324Z,5.90
2017-08-22T21:35:48.408Z,5.95
2017-08-22T21:38:16.452Z,7.10
2017-08-22T21:40:45.240Z,5.75
2017-08-22T21:43:14.280Z,7.65
2017-08-22T21:45:43.312Z,8.35
2017-08-22T21:48:11.348Z,11.50
2017-08-22T21:50:43.176Z,7.53
2017-08-22T21:53:11.228Z,8.05
2017-08-22T21:55:39.260Z,10.70
2017-08-22T21:58:07.344Z,7.60
2017-08-22T22:00:35.372Z,7.28
2017-08-22T22:03:03.512Z,7.87
2017-08-22T22:05:32.312Z,6.20
2017-08-22T22:08:00.352Z,7.62
2017-08-22T22:10:28.385Z,5.87
2017-08-22T22:12:57.440Z,9.02
2017-08-22T22:15:30.908Z,6.70
2017-08-22T22:17:58.939Z,7.68
2017-08-22T22:20:26.975Z,7.80
2017-08-22T22:22:55.979Z,11.85
2017-08-22T22:25:24.012Z,7.22
2017-08-22T22:27:52.083Z,8.27
2017-08-22T22:30:20.116Z,7.10
2017-08-22T22:32:48.171Z,7.00
2017-08-22T22:35:17.111Z,9.85
2017-08-22T22:37:45.135Z,9.13
2017-08-22T22:40:13.167Z,7.75
2017-08-22T22:42:41.199Z,7.35
2017-08-22T22:45:09.231Z,7.18
2017-08-22T22:47:38.035Z,6.90
2017-08-22T22:50:06.075Z,7.43
2017-08-22T22:52:34.112Z,6.60
2017-08-22T22:55:03.143Z,8.10
2017-08-22T22:57:31.180Z,7.22
2017-08-22T23:00:00.183Z,7.18
2017-08-22T23:02:28.227Z,10.77
2017-08-22T23:04:56.256Z,6.97
2017-08-22T23:07:27.043Z,7.55
2017-08-22T23:09:55.091Z,7.87
2017-08-22T23:12:23.111Z,7.07
2017-08-22T23:14:51.907Z,7.70
2017-08-22T23:17:19.935Z,10.65
2017-08-22T23:19:47.960Z,9.15
2017-08-22T23:22:15.983Z,8.35
2017-08-22T23:24:44.027Z,11.18
2017-08-22T23:27:12.087Z,9.45
2017-08-22T23:29:40.851Z,7.40
2017-08-22T23:32:09.649Z,7.05
2017-08-22T23:34:40.119Z,8.60
2017-08-22T23:37:09.127Z,8.40
2017-08-22T23:39:37.163Z,8.45
2017-08-22T23:42:05.186Z,7.35
2017-08-22T23:44:33.995Z,8.00
2017-08-22T23:47:02.018Z,7.25
2017-08-22T23:49:30.055Z,7.30
2017-08-22T23:51:59.107Z,7.03
2017-08-22T23:54:27.486Z,7.25
2017-08-22T23:56:59.610Z,8.27
2017-08-22T23:59:31.202Z,8.30
